Historyczne dane pomiarowe

Dodano dane terminowe – wersja testowa.

Dane z okresu 1951-2019

Wersja bazy: 1.34 [2019-03-16, lista zmian], aktualizacja planowana na 2019-04-15

Dane meteo z obszaru Polski uzyskane na podstawie danych udostępnionych przez Instytut Meteorologii i Gospodarki Wodnej – Państwowy Instytut Badawczy.

 

Wybierz Datę:    

       

TemperaturaWilgotnośćWiatrCiśnienieOpadyŚniegCzas trwania zjawisk
 Stacja t tx tn tng RH VA  wxwx mslp ppp RRR   cm mm wxwxwxwxwxwxwx
1961-08-14 13.8 19.2 8.9 7.1 81.3- 3.0 1.0---- 0.0------------
1961-08-13 13.6 15.9 12.8 13.6 89.8- 5.3 2.3---- 21.6------------
1961-08-12 18.2 24.7 15.6 13.2 85.8- 6.7 1.7---- 27.1------------
1961-08-11 24.0 33.2 18.9 11.2 74.0- 3.3 1.3---- 0.0------------
1961-08-10 24.5 29.8 19.1 17.1 88.8- 0.7 2.3---- 0.0------------
1961-08-09 23.6 30.6 14.9 13.5 74.8- 6.7 0.7---- 4.2------------
1961-08-08 18.7 22.8 15.6 15.4 83.8- 5.3 2.0---- 0.1------------
1961-08-07 23.4 31.7 15.0 12.8 68.3- 3.0 0.3---- 1.5------------
1961-08-06 23.6 31.8 13.0 11.0 66.0- 0.0 0.3---- 0.0------------
1961-08-05 19.3 24.8 15.4 13.9 75.8- 4.3 1.3---- 0.0------------
1961-08-04 17.4 22.0 9.8 7.2 64.5- 3.0 0.7---- 0.0------------
1961-08-03 18.2 22.9 14.0 12.0 73.5- 7.7 1.3---- 0.0------------
1961-08-02 20.4 27.3 8.8 6.6 68.3- 1.0 1.0---- 0.0------------
1961-08-01 16.1 22.0 10.2 8.6 73.0- 2.3 2.7---- 0.0------------
1961-07-31 13.3 16.2 11.2 11.0 93.8- 8.0 3.0---- 11.8------------
1961-07-30 12.1 14.2 11.2 11.3 91.0- 8.0 1.7---- 21.8------------
1961-07-29 14.4 20.4 12.6 15.0 88.8- 8.0 1.7---- 10.5------------
1961-07-28 21.0 27.3 16.6 13.5 72.3- 7.7 1.7---- 21.5------------
1961-07-27 21.2 28.3 11.1 8.1 73.0- 5.0 2.0---- 0.0------------
1961-07-26 17.0 23.5 11.3 9.0 69.0- 2.3 1.0---- 0.0------------
1961-07-25 14.2 16.7 12.0 10.0 73.8- 8.0 2.0---- 0.0------------
1961-07-24 15.4 19.2 12.9 10.9 67.3- 6.7 2.0---- 0.0------------
1961-07-23 16.6 21.9 12.5 10.2 72.8- 6.0 1.0---- 0.0------------
1961-07-22 14.5 19.0 12.3 9.7 85.8- 6.3 1.7---- 8.2------------
1961-07-21 15.8 19.2 10.6 7.1 80.5- 8.0 1.7---- 3.6------------
1961-07-20 15.2 20.0 9.5 6.9 86.5- 7.7 0.7---- 7.4------------
1961-07-19 16.2 21.3 10.9 9.9 73.0- 5.7 4.0---- 0.8------------
1961-07-18 15.5 20.3 10.6 7.4 72.0- 4.7 2.3---- 0.0------------
1961-07-17 16.0 22.1 14.2 11.8 73.3- 4.7 1.3---- 9.1------------
1961-07-16 17.9 22.2 14.6 13.0 74.3- 4.7 2.3---- 0.0------------
1961-07-15 19.4 24.9 11.8 9.2 72.3- 5.0 1.3---- 8.3------------
1961-07-14 16.4 20.1 13.6 10.4 59.3- 4.0 4.3---- 0.0------------
1961-07-13 21.0 30.3 14.0 10.0 70.8- 3.7 3.0---- 14.1------------
1961-07-12 20.9 29.3 13.8 8.7 74.0- 3.3 0.7---- 0.0------------
1961-07-11 16.7 22.4 9.8 5.8 70.5- 3.0 1.3---- 0.0------------
1961-07-10 15.6 20.4 10.4 7.9 63.0- 5.0 3.7---- 0.6------------
1961-07-09 16.3 22.9 8.6 8.5 71.8- 6.3 3.0---- 2.7------------
1961-07-08 15.2 21.8 7.3 4.3 69.5- 4.7 1.3---- 0.0------------
1961-07-07 13.2 18.5 10.5 7.6 75.0- 5.3 2.3---- 0.0------------
1961-07-06 13.6 17.7 8.7 6.0 63.5- 6.3 2.7---- 0.0------------
1961-07-05 15.6 21.7 14.2 13.0 70.8- 5.7 2.3---- 0.0------------
1961-07-04 23.1 30.9 16.3 13.2 63.8- 3.0 2.0---- 5.7------------
1961-07-03 24.3 31.7 13.1 9.8 56.8- 2.7 0.3---- 0.0------------
1961-07-02 21.6 27.9 12.4 9.2 66.0- 0.0 1.0---- 0.0------------
1961-07-01 20.6 26.8 12.2 9.4 67.5- 0.7 0.7---- 0.0------------
1961-06-30 18.2 23.7 10.3 14.0 71.3- 0.7 1.0---- 0.0------------
1961-06-29 16.3 21.7 10.0 11.2 68.3- 2.7 2.7---- 0.0------------
1961-06-28 15.4 20.0 14.2 14.1 70.8- 6.7 3.7---- 5.4------------
1961-06-27 23.0 33.5 15.5 12.4 75.0- 3.0 1.7---- 34.4------------
1961-06-26 22.9 32.7 15.1 11.2 72.5- 5.0 0.7---- 3.8------------
1961-06-25 23.1 30.9 12.0 8.0 55.8- 0.0 2.0---- 0.0------------
1961-06-24 19.8 27.2 11.1 9.0 65.3- 4.7 2.0---- 0.0------------
1961-06-23 19.1 25.2 16.9 14.4 70.3- 4.3 3.0---- 0.0------------
1961-06-22 19.1 25.6 11.0 7.2 71.0- 2.7 2.0---- 2.4------------
1961-06-21 18.3 25.2 7.2 9.3 57.3- 0.7 1.7---- 0.0------------
1961-06-20 16.7 21.5 13.6 11.7 55.3- 4.0 1.3---- 0.0------------
1961-06-19 20.6 28.9 13.4 9.4 68.3- 3.7 1.3---- 0.0------------
1961-06-18 19.7 27.2 9.5 6.4 65.8- 0.7 1.7---- 0.0------------
1961-06-17 17.0 23.2 7.4 3.5 63.5- 2.0 2.0---- 0.0------------
1961-06-16 15.1 20.0 10.0 5.9 65.0- 1.0 1.7---- 0.0------------
265.1 ms

 

Źródłem pochodzenia danych jest Instytut Meteorologii i Gospodarki Wodnej – Państwowy Instytut Badawczy. Dane Instytutu Meteorologii i Gospodarki Wodnej – Państwowego Instytutu Badawczego zostały przetworzone.

Dane źródłowe można odnaleźć na stronie https://dane.imgw.pl